PWSweather.com
Personal Weather Stations
Station Observations
KILMORRI1
Goose Lake, Morris, IL 60450

Goose LakeMorris, IL 60450

Lat: 41.34, Lon: -88.3

Elevation: 523

Station Type:

www.gooselakeweather.com

High Low Average
Temperature 66.8°F19.3°C 43.8°F6.6°C 54.3°F12.4°C
Dew Point 34.4°F1.3°C 26.9°F-2.8°C 31.6°F-0.2°C
Winds 13.8 mph 22.2 kmh 2.3 mph 3.7 kmh 8.0 mph ENE12.9 kmh ENE
Wind Gusts 19.6 mph31.5 kmh 3.5 mph5.6 kmh 11.0 mph17.7 kmh
Humidity 61% 24% 44%
Pressure 30.34 in1027.4 mb 30.19 in1022.4 mb -
Precipitation 0.00 in0.0 mm - -
Hour Temp Dew Point Humidity Winds Wind Gusts Pressure Precip Precip Rate Daily Precip Total
12:00 AM 44.9°F7.2°C 27.3°F-2.6°C 50% 3.5 mph NE5.6 kmh NE 4.6 mph7.4 kmh 30.36 in1028.1 mb - 0.00 in0.0 mm 0.00 in0.0 mm
12:10 AM 44.4°F6.9°C 28.3°F-2.1°C 53% 2.3 mph NE3.7 kmh NE 2.3 mph3.7 kmh 30.36 in1028.1 mb - 0.00 in0.0 mm 0.00 in0.0 mm
12:20 AM 43.9°F6.6°C 28.3°F-2.1°C 54% 2.3 mph ENE3.7 kmh ENE 2.3 mph3.7 kmh 30.35 in1027.8 mb - 0.00 in0.0 mm 0.00 in0.0 mm
12:30 AM 44.2°F6.8°C 28.2°F-2.1°C 53% 3.5 mph ENE5.6 kmh ENE 4.6 mph7.4 kmh 30.36 in1028.1 mb - 0.00 in0.0 mm 0.00 in0.0 mm
12:40 AM 45.0°F7.2°C 27.0°F-2.8°C 49% 5.8 mph ENE9.3 kmh ENE 6.9 mph11.1 kmh 30.35 in1027.8 mb - 0.00 in0.0 mm 0.00 in0.0 mm
12:50 AM 44.8°F7.1°C 28.7°F-1.8°C 53% 6.9 mph E11.1 kmh E 8.1 mph13.0 kmh 30.34 in1027.4 mb - 0.00 in0.0 mm 0.00 in0.0 mm
01:00 AM 43.8°F6.6°C 28.2°F-2.1°C 54% 4.6 mph E7.4 kmh E 6.9 mph11.1 kmh 30.34 in1027.4 mb - 0.00 in0.0 mm 0.00 in0.0 mm
01:10 AM 43.9°F6.6°C 26.9°F-2.8°C 51% 4.6 mph E7.4 kmh E 5.8 mph9.3 kmh 30.33 in1027.1 mb - 0.00 in0.0 mm 0.00 in0.0 mm
01:20 AM 44.2°F6.8°C 28.1°F-2.2°C 53% 2.3 mph NE3.7 kmh NE 6.9 mph11.1 kmh 30.34 in1027.4 mb - 0.00 in0.0 mm 0.00 in0.0 mm
01:30 AM 45.0°F7.2°C 29.3°F-1.5°C 54% 3.5 mph ENE5.6 kmh ENE 4.6 mph7.4 kmh 30.33 in1027.1 mb - 0.00 in0.0 mm 0.00 in0.0 mm
01:40 AM 44.9°F7.2°C 29.3°F-1.5°C 54% 3.5 mph ENE5.6 kmh ENE 6.9 mph11.1 kmh 30.33 in1027.1 mb - 0.00 in0.0 mm 0.00 in0.0 mm
01:50 AM 45.1°F7.3°C 29.4°F-1.4°C 54% 8.1 mph ENE13.0 kmh ENE 11.5 mph18.5 kmh 30.31 in1026.4 mb - 0.00 in0.0 mm 0.00 in0.0 mm
02:00 AM 45.6°F7.6°C 29.0°F-1.7°C 52% 5.8 mph ENE9.3 kmh ENE 9.2 mph14.8 kmh 30.31 in1026.4 mb - 0.00 in0.0 mm 0.00 in0.0 mm
02:10 AM 46.0°F7.8°C 29.3°F-1.5°C 52% 5.8 mph ENE9.3 kmh ENE 8.1 mph13.0 kmh 30.31 in1026.4 mb - 0.00 in0.0 mm 0.00 in0.0 mm
02:20 AM 45.7°F7.6°C 29.5°F-1.4°C 53% 4.6 mph ENE7.4 kmh ENE 4.6 mph7.4 kmh 30.31 in1026.4 mb - 0.00 in0.0 mm 0.00 in0.0 mm
02:30 AM 45.7°F7.6°C 29.5°F-1.4°C 53% 4.6 mph ENE7.4 kmh ENE 6.9 mph11.1 kmh 30.31 in1026.4 mb - 0.00 in0.0 mm 0.00 in0.0 mm
02:40 AM 45.9°F7.7°C 29.7°F-1.3°C 53% 5.8 mph ENE9.3 kmh ENE 10.4 mph16.7 kmh 30.30 in1026.1 mb - 0.00 in0.0 mm 0.00 in0.0 mm
02:50 AM 46.2°F7.9°C 29.0°F-1.7°C 51% 8.1 mph ENE13.0 kmh ENE 11.5 mph18.5 kmh 30.30 in1026.1 mb - 0.00 in0.0 mm 0.00 in0.0 mm
03:00 AM 46.4°F8.0°C 29.2°F-1.6°C 51% 5.8 mph E9.3 kmh E 9.2 mph14.8 kmh 30.30 in1026.1 mb - 0.00 in0.0 mm 0.00 in0.0 mm
03:10 AM 46.5°F8.1°C 28.3°F-2.1°C 49% 9.2 mph ENE14.8 kmh ENE 11.5 mph18.5 kmh 30.30 in1026.1 mb - 0.00 in0.0 mm 0.00 in0.0 mm
03:20 AM 46.2°F7.9°C 29.6°F-1.3°C 52% 8.1 mph ENE13.0 kmh ENE 12.7 mph20.4 kmh 30.30 in1026.1 mb - 0.00 in0.0 mm 0.00 in0.0 mm
03:30 AM 46.3°F7.9°C 29.6°F-1.3°C 52% 6.9 mph ENE11.1 kmh ENE 11.5 mph18.5 kmh 30.30 in1026.1 mb - 0.00 in0.0 mm 0.00 in0.0 mm
03:40 AM 46.6°F8.1°C 29.9°F-1.2°C 52% 5.8 mph E9.3 kmh E 10.4 mph16.7 kmh 30.30 in1026.1 mb - 0.00 in0.0 mm 0.00 in0.0 mm
03:50 AM 47.0°F8.3°C 30.7°F-0.7°C 53% 4.6 mph E7.4 kmh E 8.1 mph13.0 kmh 30.30 in1026.1 mb - 0.00 in0.0 mm 0.00 in0.0 mm
04:00 AM 46.5°F8.1°C 31.2°F-0.4°C 55% 4.6 mph E7.4 kmh E 8.1 mph13.0 kmh 30.30 in1026.1 mb - 0.00 in0.0 mm 0.00 in0.0 mm
04:10 AM 45.7°F7.6°C 30.5°F-0.8°C 55% 5.8 mph E9.3 kmh E 5.8 mph9.3 kmh 30.30 in1026.1 mb - 0.00 in0.0 mm 0.00 in0.0 mm
04:20 AM 45.8°F7.7°C 31.0°F-0.6°C 56% 3.5 mph E5.6 kmh E 4.6 mph7.4 kmh 30.30 in1026.1 mb - 0.00 in0.0 mm 0.00 in0.0 mm
04:30 AM 45.5°F7.5°C 32.0°F0.0°C 59% 6.9 mph E11.1 kmh E 9.2 mph14.8 kmh 30.30 in1026.1 mb - 0.00 in0.0 mm 0.00 in0.0 mm
04:40 AM 45.4°F7.4°C 31.0°F-0.6°C 57% 5.8 mph E9.3 kmh E 9.2 mph14.8 kmh 30.30 in1026.1 mb - 0.00 in0.0 mm 0.00 in0.0 mm
04:50 AM 45.3°F7.4°C 30.1°F-1.1°C 55% 5.8 mph E9.3 kmh E 6.9 mph11.1 kmh 30.30 in1026.1 mb - 0.00 in0.0 mm 0.00 in0.0 mm
05:00 AM 45.2°F7.3°C 30.4°F-0.9°C 56% 5.8 mph E9.3 kmh E 6.9 mph11.1 kmh 30.30 in1026.1 mb - 0.00 in0.0 mm 0.00 in0.0 mm
05:10 AM 44.9°F7.2°C 30.2°F-1.0°C 56% 3.5 mph E5.6 kmh E 5.8 mph9.3 kmh 30.30 in1026.1 mb - 0.00 in0.0 mm 0.00 in0.0 mm
05:20 AM 45.4°F7.4°C 30.6°F-0.8°C 56% 5.8 mph E9.3 kmh E 8.1 mph13.0 kmh 30.31 in1026.4 mb - 0.00 in0.0 mm 0.00 in0.0 mm
05:30 AM 45.9°F7.7°C 31.1°F-0.5°C 56% 5.8 mph E9.3 kmh E 9.2 mph14.8 kmh 30.31 in1026.4 mb - 0.00 in0.0 mm 0.00 in0.0 mm
05:40 AM 46.0°F7.8°C 31.6°F-0.2°C 57% 3.5 mph E5.6 kmh E 5.8 mph9.3 kmh 30.31 in1026.4 mb - 0.00 in0.0 mm 0.00 in0.0 mm
05:50 AM 45.8°F7.7°C 31.9°F-0.1°C 58% 6.9 mph E11.1 kmh E 6.9 mph11.1 kmh 30.32 in1026.8 mb - 0.00 in0.0 mm 0.00 in0.0 mm
06:00 AM 45.8°F7.7°C 31.9°F-0.1°C 58% 4.6 mph E7.4 kmh E 5.8 mph9.3 kmh 30.32 in1026.8 mb - 0.00 in0.0 mm 0.00 in0.0 mm
06:10 AM 46.1°F7.8°C 31.7°F-0.2°C 57% 3.5 mph E5.6 kmh E 4.6 mph7.4 kmh 30.32 in1026.8 mb - 0.00 in0.0 mm 0.00 in0.0 mm
06:20 AM 45.7°F7.6°C 32.6°F0.3°C 60% 5.8 mph E9.3 kmh E 8.1 mph13.0 kmh 30.32 in1026.8 mb - 0.00 in0.0 mm 0.00 in0.0 mm
06:30 AM 46.3°F7.9°C 32.7°F0.4°C 59% 5.8 mph E9.3 kmh E 9.2 mph14.8 kmh 30.32 in1026.8 mb - 0.00 in0.0 mm 0.00 in0.0 mm
06:40 AM 46.8°F8.2°C 33.2°F0.7°C 59% 6.9 mph E11.1 kmh E 9.2 mph14.8 kmh 30.32 in1026.8 mb - 0.00 in0.0 mm 0.00 in0.0 mm
06:50 AM 46.8°F8.2°C 32.4°F0.2°C 57% 5.8 mph E9.3 kmh E 5.8 mph9.3 kmh 30.32 in1026.8 mb - 0.00 in0.0 mm 0.00 in0.0 mm
07:00 AM 47.1°F8.4°C 31.7°F-0.2°C 55% 5.8 mph E9.3 kmh E 6.9 mph11.1 kmh 30.33 in1027.1 mb - 0.00 in0.0 mm 0.00 in0.0 mm
07:10 AM 47.1°F8.4°C 33.5°F0.8°C 59% 3.5 mph ENE5.6 kmh ENE 5.8 mph9.3 kmh 30.33 in1027.1 mb - 0.00 in0.0 mm 0.00 in0.0 mm
07:20 AM 47.2°F8.4°C 34.0°F1.1°C 60% 4.6 mph ENE7.4 kmh ENE 9.2 mph14.8 kmh 30.33 in1027.1 mb - 0.00 in0.0 mm 0.00 in0.0 mm
07:30 AM 47.6°F8.7°C 34.4°F1.3°C 60% 3.5 mph E5.6 kmh E 4.6 mph7.4 kmh 30.34 in1027.4 mb - 0.00 in0.0 mm 0.00 in0.0 mm
07:40 AM 48.4°F9.1°C 33.8°F1.0°C 57% 4.6 mph E7.4 kmh E 8.1 mph13.0 kmh 30.34 in1027.4 mb - 0.00 in0.0 mm 0.00 in0.0 mm
07:50 AM 48.6°F9.2°C 32.2°F0.1°C 53% 8.1 mph E13.0 kmh E 9.2 mph14.8 kmh 30.34 in1027.4 mb - 0.00 in0.0 mm 0.00 in0.0 mm
08:00 AM 49.1°F9.5°C 32.7°F0.4°C 53% 9.2 mph E14.8 kmh E 12.7 mph20.4 kmh 30.34 in1027.4 mb - 0.00 in0.0 mm 0.00 in0.0 mm
08:10 AM 49.9°F9.9°C 33.0°F0.6°C 52% 5.8 mph E9.3 kmh E 10.4 mph16.7 kmh 30.34 in1027.4 mb - 0.00 in0.0 mm 0.00 in0.0 mm
08:20 AM 50.2°F10.1°C 32.7°F0.4°C 51% 6.9 mph E11.1 kmh E 9.2 mph14.8 kmh 30.34 in1027.4 mb - 0.00 in0.0 mm 0.00 in0.0 mm
08:30 AM 50.6°F10.3°C 32.1°F0.1°C 49% 8.1 mph E13.0 kmh E 9.2 mph14.8 kmh 30.34 in1027.4 mb - 0.00 in0.0 mm 0.00 in0.0 mm
08:40 AM 51.5°F10.8°C 30.8°F-0.7°C 45% 6.9 mph E11.1 kmh E 9.2 mph14.8 kmh 30.34 in1027.4 mb - 0.00 in0.0 mm 0.00 in0.0 mm
08:50 AM 52.5°F11.4°C 31.2°F-0.4°C 44% 10.4 mph E16.7 kmh E 12.7 mph20.4 kmh 30.34 in1027.4 mb - 0.00 in0.0 mm 0.00 in0.0 mm
09:00 AM 53.1°F11.7°C 30.6°F-0.8°C 42% 9.2 mph E14.8 kmh E 11.5 mph18.5 kmh 30.34 in1027.4 mb - 0.00 in0.0 mm 0.00 in0.0 mm
09:10 AM 53.5°F11.9°C 30.4°F-0.9°C 41% 11.5 mph E18.5 kmh E 15.0 mph24.1 kmh 30.33 in1027.1 mb - 0.00 in0.0 mm 0.00 in0.0 mm
09:20 AM 55.4°F13.0°C 30.8°F-0.7°C 39% 10.4 mph E16.7 kmh E 16.1 mph25.9 kmh 30.33 in1027.1 mb - 0.00 in0.0 mm 0.00 in0.0 mm
09:30 AM 56.0°F13.3°C 30.0°F-1.1°C 37% 11.5 mph E18.5 kmh E 16.1 mph25.9 kmh 30.32 in1026.8 mb - 0.00 in0.0 mm 0.00 in0.0 mm
09:40 AM 55.6°F13.1°C 28.4°F-2.0°C 35% 9.2 mph E14.8 kmh E 15.0 mph24.1 kmh 30.32 in1026.8 mb - 0.00 in0.0 mm 0.00 in0.0 mm
09:50 AM 56.2°F13.4°C 28.9°F-1.7°C 35% 11.5 mph E18.5 kmh E 13.8 mph22.2 kmh 30.32 in1026.8 mb - 0.00 in0.0 mm 0.00 in0.0 mm
10:00 AM 57.4°F14.1°C 30.6°F-0.8°C 36% 11.5 mph E18.5 kmh E 15.0 mph24.1 kmh 30.32 in1026.8 mb - 0.00 in0.0 mm 0.00 in0.0 mm
10:10 AM 58.2°F14.6°C 30.7°F-0.7°C 35% 13.8 mph E22.2 kmh E 17.3 mph27.8 kmh 30.32 in1026.8 mb - 0.00 in0.0 mm 0.00 in0.0 mm
10:20 AM 58.1°F14.5°C 31.2°F-0.4°C 36% 11.5 mph E18.5 kmh E 12.7 mph20.4 kmh 30.31 in1026.4 mb - 0.00 in0.0 mm 0.00 in0.0 mm
10:30 AM 58.0°F14.4°C 30.5°F-0.8°C 35% 13.8 mph E22.2 kmh E 19.6 mph31.5 kmh 30.30 in1026.1 mb - 0.00 in0.0 mm 0.00 in0.0 mm
10:40 AM 59.7°F15.4°C 32.0°F0.0°C 35% 13.8 mph E22.2 kmh E 13.8 mph22.2 kmh 30.31 in1026.4 mb - 0.00 in0.0 mm 0.00 in0.0 mm
10:50 AM 58.8°F14.9°C 31.2°F-0.4°C 35% 10.4 mph ENE16.7 kmh ENE 13.8 mph22.2 kmh 30.30 in1026.1 mb - 0.00 in0.0 mm 0.00 in0.0 mm
11:00 AM 59.3°F15.2°C 28.7°F-1.8°C 31% 11.5 mph E18.5 kmh E 17.3 mph27.8 kmh 30.30 in1026.1 mb - 0.00 in0.0 mm 0.00 in0.0 mm
11:10 AM 61.2°F16.2°C 31.1°F-0.5°C 32% 9.2 mph E14.8 kmh E 10.4 mph16.7 kmh 30.30 in1026.1 mb - 0.00 in0.0 mm 0.00 in0.0 mm
11:20 AM 61.5°F16.4°C 31.3°F-0.4°C 32% 11.5 mph ENE18.5 kmh ENE 13.8 mph22.2 kmh 30.29 in1025.7 mb - 0.00 in0.0 mm 0.00 in0.0 mm
11:30 AM 62.2°F16.8°C 30.4°F-0.9°C 30% 10.4 mph ENE16.7 kmh ENE 12.7 mph20.4 kmh 30.29 in1025.7 mb - 0.00 in0.0 mm 0.00 in0.0 mm
11:40 AM 62.1°F16.7°C 28.6°F-1.9°C 28% 11.5 mph E18.5 kmh E 13.8 mph22.2 kmh 30.28 in1025.4 mb - 0.00 in0.0 mm 0.00 in0.0 mm
11:50 AM 63.0°F17.2°C 30.3°F-0.9°C 29% 11.5 mph E18.5 kmh E 19.6 mph31.5 kmh 30.28 in1025.4 mb - 0.00 in0.0 mm 0.00 in0.0 mm
12:00 PM 63.4°F17.4°C 30.6°F-0.8°C 29% 10.4 mph ENE16.7 kmh ENE 13.8 mph22.2 kmh 30.28 in1025.4 mb - 0.00 in0.0 mm 0.00 in0.0 mm
12:10 PM 63.3°F17.4°C 27.8°F-2.3°C 26% 11.5 mph ENE18.5 kmh ENE 15.0 mph24.1 kmh 30.27 in1025.1 mb - 0.00 in0.0 mm 0.00 in0.0 mm
12:20 PM 63.8°F17.7°C 30.9°F-0.6°C 29% 11.5 mph E18.5 kmh E 16.1 mph25.9 kmh 30.27 in1025.1 mb - 0.00 in0.0 mm 0.00 in0.0 mm
12:30 PM 64.2°F17.9°C 27.6°F-2.4°C 25% 11.5 mph ENE18.5 kmh ENE 13.8 mph22.2 kmh 30.27 in1025.1 mb - 0.00 in0.0 mm 0.00 in0.0 mm
12:40 PM 63.8°F17.7°C 30.0°F-1.1°C 28% 11.5 mph ENE18.5 kmh ENE 16.1 mph25.9 kmh 30.26 in1024.7 mb - 0.00 in0.0 mm 0.00 in0.0 mm
12:50 PM 63.5°F17.5°C 28.9°F-1.7°C 27% 6.9 mph ENE11.1 kmh ENE 13.8 mph22.2 kmh 30.26 in1024.7 mb - 0.00 in0.0 mm 0.00 in0.0 mm
01:00 PM 63.3°F17.4°C 28.7°F-1.8°C 27% 11.5 mph ENE18.5 kmh ENE 17.3 mph27.8 kmh 30.26 in1024.7 mb - 0.00 in0.0 mm 0.00 in0.0 mm
01:10 PM 63.3°F17.4°C 27.8°F-2.3°C 26% 9.2 mph ENE14.8 kmh ENE 13.8 mph22.2 kmh 30.25 in1024.4 mb - 0.00 in0.0 mm 0.00 in0.0 mm
01:20 PM 64.4°F18.0°C 28.8°F-1.8°C 26% 10.4 mph NE16.7 kmh NE 17.3 mph27.8 kmh 30.25 in1024.4 mb - 0.00 in0.0 mm 0.00 in0.0 mm
01:30 PM 65.2°F18.4°C 27.5°F-2.5°C 24% 12.7 mph E20.4 kmh E 16.1 mph25.9 kmh 30.24 in1024.0 mb - 0.00 in0.0 mm 0.00 in0.0 mm
01:40 PM 65.9°F18.8°C 29.1°F-1.6°C 25% 10.4 mph E16.7 kmh E 12.7 mph20.4 kmh 30.24 in1024.0 mb - 0.00 in0.0 mm 0.00 in0.0 mm
01:50 PM 66.8°F19.3°C 29.8°F-1.2°C 25% 13.8 mph E22.2 kmh E 17.3 mph27.8 kmh 30.24 in1024.0 mb - 0.00 in0.0 mm 0.00 in0.0 mm
02:00 PM 66.8°F19.3°C 34.3°F1.3°C 30% 10.4 mph NE16.7 kmh NE 16.1 mph25.9 kmh 30.23 in1023.7 mb - 0.00 in0.0 mm 0.00 in0.0 mm
02:10 PM 66.7°F19.3°C 31.7°F-0.2°C 27% 10.4 mph ENE16.7 kmh ENE 16.1 mph25.9 kmh 30.23 in1023.7 mb - 0.00 in0.0 mm 0.00 in0.0 mm
02:20 PM 65.0°F18.3°C 30.1°F-1.1°C 27% 9.2 mph ENE14.8 kmh ENE 11.5 mph18.5 kmh 30.22 in1023.4 mb - 0.00 in0.0 mm 0.00 in0.0 mm
02:30 PM 64.4°F18.0°C 29.7°F-1.3°C 27% 8.1 mph NE13.0 kmh NE 11.5 mph18.5 kmh 30.22 in1023.4 mb - 0.00 in0.0 mm 0.00 in0.0 mm
02:40 PM 64.4°F18.0°C 31.4°F-0.3°C 29% 8.1 mph ENE13.0 kmh ENE 11.5 mph18.5 kmh 30.21 in1023.0 mb - 0.00 in0.0 mm 0.00 in0.0 mm
02:50 PM 65.3°F18.5°C 33.0°F0.6°C 30% 10.4 mph ENE16.7 kmh ENE 13.8 mph22.2 kmh 30.21 in1023.0 mb - 0.00 in0.0 mm 0.00 in0.0 mm
03:00 PM 66.0°F18.9°C 32.8°F0.4°C 29% 11.5 mph ENE18.5 kmh ENE 15.0 mph24.1 kmh 30.21 in1023.0 mb - 0.00 in0.0 mm 0.00 in0.0 mm
03:10 PM 66.1°F18.9°C 33.7°F0.9°C 30% 10.4 mph NE16.7 kmh NE 11.5 mph18.5 kmh 30.20 in1022.7 mb - 0.00 in0.0 mm 0.00 in0.0 mm
03:20 PM 66.7°F19.3°C 34.3°F1.3°C 30% 9.2 mph ENE14.8 kmh ENE 13.8 mph22.2 kmh 30.20 in1022.7 mb - 0.00 in0.0 mm 0.00 in0.0 mm
03:30 PM 66.7°F19.3°C 33.4°F0.8°C 29% 9.2 mph E14.8 kmh E 16.1 mph25.9 kmh 30.20 in1022.7 mb - 0.00 in0.0 mm 0.00 in0.0 mm
03:40 PM 65.0°F18.3°C 32.8°F0.4°C 30% 8.1 mph ENE13.0 kmh ENE 11.5 mph18.5 kmh 30.20 in1022.7 mb - 0.00 in0.0 mm 0.00 in0.0 mm
03:50 PM 64.0°F17.8°C 32.7°F0.4°C 31% 5.8 mph ENE9.3 kmh ENE 9.2 mph14.8 kmh 30.20 in1022.7 mb - 0.00 in0.0 mm 0.00 in0.0 mm
04:00 PM 64.0°F17.8°C 34.3°F1.3°C 33% 9.2 mph ENE14.8 kmh ENE 12.7 mph20.4 kmh 30.20 in1022.7 mb - 0.00 in0.0 mm 0.00 in0.0 mm
04:10 PM 63.7°F17.6°C 33.3°F0.7°C 32% 9.2 mph ENE14.8 kmh ENE 11.5 mph18.5 kmh 30.20 in1022.7 mb - 0.00 in0.0 mm 0.00 in0.0 mm
04:20 PM 63.9°F17.7°C 34.2°F1.2°C 33% 11.5 mph ENE18.5 kmh ENE 13.8 mph22.2 kmh 30.20 in1022.7 mb - 0.00 in0.0 mm 0.00 in0.0 mm
04:30 PM 63.8°F17.7°C 33.4°F0.8°C 32% 11.5 mph ENE18.5 kmh ENE 15.0 mph24.1 kmh 30.19 in1022.4 mb - 0.00 in0.0 mm 0.00 in0.0 mm
04:40 PM 63.5°F17.5°C 32.3°F0.2°C 31% 8.1 mph NE13.0 kmh NE 11.5 mph18.5 kmh 30.19 in1022.4 mb - 0.00 in0.0 mm 0.00 in0.0 mm
04:50 PM 63.5°F17.5°C 33.9°F1.1°C 33% 9.2 mph NE14.8 kmh NE 12.7 mph20.4 kmh 30.19 in1022.4 mb - 0.00 in0.0 mm 0.00 in0.0 mm
05:00 PM 64.6°F18.1°C 34.0°F1.1°C 32% 10.4 mph ENE16.7 kmh ENE 15.0 mph24.1 kmh 30.19 in1022.4 mb - 0.00 in0.0 mm 0.00 in0.0 mm
05:10 PM 64.6°F18.1°C 33.3°F0.7°C 31% 11.5 mph ENE18.5 kmh ENE 15.0 mph24.1 kmh 30.19 in1022.4 mb - 0.00 in0.0 mm 0.00 in0.0 mm
05:20 PM 63.5°F17.5°C 33.1°F0.6°C 32% 11.5 mph ENE18.5 kmh ENE 13.8 mph22.2 kmh 30.19 in1022.4 mb - 0.00 in0.0 mm 0.00 in0.0 mm
05:30 PM 63.0°F17.2°C 33.4°F0.8°C 33% 9.2 mph ENE14.8 kmh ENE 12.7 mph20.4 kmh 30.19 in1022.4 mb - 0.00 in0.0 mm 0.00 in0.0 mm
05:40 PM 62.8°F17.1°C 32.5°F0.3°C 32% 11.5 mph NE18.5 kmh NE 16.1 mph25.9 kmh 30.19 in1022.4 mb - 0.00 in0.0 mm 0.00 in0.0 mm
05:50 PM 62.2°F16.8°C 31.2°F-0.4°C 31% 9.2 mph NE14.8 kmh NE 11.5 mph18.5 kmh 30.19 in1022.4 mb - 0.00 in0.0 mm 0.00 in0.0 mm
06:00 PM 61.6°F16.4°C 33.6°F0.9°C 35% 8.1 mph NE13.0 kmh NE 11.5 mph18.5 kmh 30.19 in1022.4 mb - 0.00 in0.0 mm 0.00 in0.0 mm
06:10 PM 61.0°F16.1°C 33.9°F1.1°C 36% 5.8 mph NE9.3 kmh NE 10.4 mph16.7 kmh 30.19 in1022.4 mb - 0.00 in0.0 mm 0.00 in0.0 mm
06:20 PM 60.8°F16.0°C 33.7°F0.9°C 36% 8.1 mph NE13.0 kmh NE 11.5 mph18.5 kmh 30.19 in1022.4 mb - 0.00 in0.0 mm 0.00 in0.0 mm
06:30 PM 60.5°F15.8°C 31.2°F-0.4°C 33% 8.1 mph ENE13.0 kmh ENE 10.4 mph16.7 kmh 30.19 in1022.4 mb - 0.00 in0.0 mm 0.00 in0.0 mm
06:40 PM 60.1°F15.6°C 31.6°F-0.2°C 34% 6.9 mph NE11.1 kmh NE 13.8 mph22.2 kmh 30.19 in1022.4 mb - 0.00 in0.0 mm 0.00 in0.0 mm
06:50 PM 59.6°F15.3°C 31.9°F-0.1°C 35% 9.2 mph ENE14.8 kmh ENE 11.5 mph18.5 kmh 30.19 in1022.4 mb - 0.00 in0.0 mm 0.00 in0.0 mm
07:00 PM 59.2°F15.1°C 32.9°F0.5°C 37% 6.9 mph NE11.1 kmh NE 10.4 mph16.7 kmh 30.19 in1022.4 mb - 0.00 in0.0 mm 0.00 in0.0 mm
07:10 PM 58.6°F14.8°C 31.0°F-0.6°C 35% 8.1 mph NE13.0 kmh NE 12.7 mph20.4 kmh 30.19 in1022.4 mb - 0.00 in0.0 mm 0.00 in0.0 mm
07:20 PM 57.8°F14.3°C 31.7°F-0.2°C 37% 9.2 mph ENE14.8 kmh ENE 11.5 mph18.5 kmh 30.20 in1022.7 mb - 0.00 in0.0 mm 0.00 in0.0 mm
07:30 PM 56.5°F13.6°C 32.5°F0.3°C 40% 6.9 mph ENE11.1 kmh ENE 9.2 mph14.8 kmh 30.19 in1022.4 mb - 0.00 in0.0 mm 0.00 in0.0 mm
07:40 PM 56.1°F13.4°C 32.0°F0.0°C 40% 5.8 mph ENE9.3 kmh ENE 8.1 mph13.0 kmh 30.20 in1022.7 mb - 0.00 in0.0 mm 0.00 in0.0 mm
07:50 PM 55.3°F12.9°C 32.0°F0.0°C 41% 3.5 mph NE5.6 kmh NE 6.9 mph11.1 kmh 30.20 in1022.7 mb - 0.00 in0.0 mm 0.00 in0.0 mm
08:00 PM 55.0°F12.8°C 31.1°F-0.5°C 40% 5.8 mph ENE9.3 kmh ENE 11.5 mph18.5 kmh 30.20 in1022.7 mb - 0.00 in0.0 mm 0.00 in0.0 mm
08:10 PM 54.2°F12.3°C 31.6°F-0.2°C 42% 5.8 mph ENE9.3 kmh ENE 11.5 mph18.5 kmh 30.20 in1022.7 mb - 0.00 in0.0 mm 0.00 in0.0 mm
08:20 PM 53.9°F12.2°C 33.1°F0.6°C 45% 5.8 mph ENE9.3 kmh ENE 8.1 mph13.0 kmh 30.20 in1022.7 mb - 0.00 in0.0 mm 0.00 in0.0 mm
08:30 PM 53.5°F11.9°C 32.7°F0.4°C 45% 8.1 mph ENE13.0 kmh ENE 12.7 mph20.4 kmh 30.20 in1022.7 mb - 0.00 in0.0 mm 0.00 in0.0 mm
08:40 PM 53.7°F12.1°C 32.3°F0.2°C 44% 6.9 mph ENE11.1 kmh ENE 10.4 mph16.7 kmh 30.20 in1022.7 mb - 0.00 in0.0 mm 0.00 in0.0 mm
08:50 PM 53.3°F11.8°C 31.9°F-0.1°C 44% 8.1 mph ENE13.0 kmh ENE 10.4 mph16.7 kmh 30.21 in1023.0 mb - 0.00 in0.0 mm 0.00 in0.0 mm
09:00 PM 52.5°F11.4°C 32.3°F0.2°C 46% 8.1 mph ENE13.0 kmh ENE 11.5 mph18.5 kmh 30.20 in1022.7 mb - 0.00 in0.0 mm 0.00 in0.0 mm
09:10 PM 52.2°F11.2°C 32.6°F0.3°C 47% 9.2 mph NE14.8 kmh NE 13.8 mph22.2 kmh 30.21 in1023.0 mb - 0.00 in0.0 mm 0.00 in0.0 mm
09:20 PM 51.8°F11.0°C 32.2°F0.1°C 47% 8.1 mph ENE13.0 kmh ENE 12.7 mph20.4 kmh 30.21 in1023.0 mb - 0.00 in0.0 mm 0.00 in0.0 mm
09:30 PM 51.4°F10.8°C 32.9°F0.5°C 49% 6.9 mph ENE11.1 kmh ENE 12.7 mph20.4 kmh 30.21 in1023.0 mb - 0.00 in0.0 mm 0.00 in0.0 mm
09:40 PM 50.6°F10.3°C 32.6°F0.3°C 50% 3.5 mph NE5.6 kmh NE 4.6 mph7.4 kmh 30.21 in1023.0 mb - 0.00 in0.0 mm 0.00 in0.0 mm
09:50 PM 50.1°F10.1°C 32.2°F0.1°C 50% 4.6 mph NE7.4 kmh NE 6.9 mph11.1 kmh 30.21 in1023.0 mb - 0.00 in0.0 mm 0.00 in0.0 mm
10:00 PM 49.7°F9.8°C 32.8°F0.4°C 52% 6.9 mph ENE11.1 kmh ENE 10.4 mph16.7 kmh 30.21 in1023.0 mb - 0.00 in0.0 mm 0.00 in0.0 mm
10:10 PM 49.6°F9.8°C 33.6°F0.9°C 54% 4.6 mph ENE7.4 kmh ENE 10.4 mph16.7 kmh 30.20 in1022.7 mb - 0.00 in0.0 mm 0.00 in0.0 mm
10:20 PM 49.3°F9.6°C 32.9°F0.5°C 53% 6.9 mph ENE11.1 kmh ENE 9.2 mph14.8 kmh 30.20 in1022.7 mb - 0.00 in0.0 mm 0.00 in0.0 mm
10:30 PM 49.1°F9.5°C 33.6°F0.9°C 55% 4.6 mph ENE7.4 kmh ENE 6.9 mph11.1 kmh 30.20 in1022.7 mb - 0.00 in0.0 mm 0.00 in0.0 mm
10:40 PM 48.9°F9.4°C 33.9°F1.1°C 56% 4.6 mph ENE7.4 kmh ENE 10.4 mph16.7 kmh 30.20 in1022.7 mb - 0.00 in0.0 mm 0.00 in0.0 mm
10:50 PM 48.8°F9.3°C 33.8°F1.0°C 56% 6.9 mph ENE11.1 kmh ENE 8.1 mph13.0 kmh 30.20 in1022.7 mb - 0.00 in0.0 mm 0.00 in0.0 mm
11:00 PM 48.8°F9.3°C 33.8°F1.0°C 56% 6.9 mph ENE11.1 kmh ENE 9.2 mph14.8 kmh 30.20 in1022.7 mb - 0.00 in0.0 mm 0.00 in0.0 mm
11:10 PM 49.1°F9.5°C 33.1°F0.6°C 54% 5.8 mph ENE9.3 kmh ENE 6.9 mph11.1 kmh 30.20 in1022.7 mb - 0.00 in0.0 mm 0.00 in0.0 mm
11:20 PM 48.6°F9.2°C 33.1°F0.6°C 55% 6.9 mph ENE11.1 kmh ENE 11.5 mph18.5 kmh 30.20 in1022.7 mb - 0.00 in0.0 mm 0.00 in0.0 mm
11:40 PM 47.7°F8.7°C 33.7°F0.9°C 58% 4.6 mph ENE7.4 kmh ENE 6.9 mph11.1 kmh 30.20 in1022.7 mb - 0.00 in0.0 mm 0.00 in0.0 mm
11:50 PM 47.2°F8.4°C 34.0°F1.1°C 60% 4.6 mph ENE7.4 kmh ENE 8.1 mph13.0 kmh 30.20 in1022.7 mb - 0.00 in0.0 mm 0.00 in0.0 mm